createdAt,value
2022-09-03T00:01:44.568Z,18.54
2022-09-03T00:04:25.726Z,18.49
2022-09-03T00:06:59.283Z,18.46
2022-09-03T00:09:30.968Z,18.46
2022-09-03T00:12:02.816Z,18.44
2022-09-03T00:14:37.835Z,18.44
2022-09-03T00:17:11.612Z,18.42
2022-09-03T00:19:45.554Z,18.44
2022-09-03T00:22:16.752Z,18.50
2022-09-03T00:24:46.932Z,18.60
2022-09-03T00:27:18.864Z,18.54
2022-09-03T00:29:49.489Z,18.57
2022-09-03T00:32:19.871Z,18.55
2022-09-03T00:34:52.346Z,18.61
2022-09-03T00:37:21.533Z,18.60
2022-09-03T00:39:50.930Z,18.62
2022-09-03T00:42:29.610Z,18.56
2022-09-03T00:45:23.914Z,18.61
2022-09-03T00:48:03.927Z,18.64
2022-09-03T00:50:42.217Z,18.67
2022-09-03T00:53:16.053Z,18.60
2022-09-03T00:55:52.728Z,18.67
2022-09-03T00:58:41.210Z,18.70
2022-09-03T01:01:14.632Z,18.63
2022-09-03T01:03:51.363Z,18.70
2022-09-03T01:06:21.228Z,18.64
2022-09-03T01:09:05.283Z,18.67
2022-09-03T01:11:44.368Z,18.71
2022-09-03T01:14:20.217Z,18.68
2022-09-03T01:16:51.652Z,18.73
2022-09-03T01:19:56.670Z,18.67
2022-09-03T01:22:38.594Z,18.67
2022-09-03T01:25:17.687Z,18.68
2022-09-03T01:28:02.251Z,18.74
2022-09-03T01:30:32.694Z,18.68
2022-09-03T01:33:09.743Z,18.73
2022-09-03T01:35:45.349Z,18.69
2022-09-03T01:38:20.821Z,18.72
2022-09-03T01:40:56.067Z,18.70
2022-09-03T01:43:39.202Z,18.69
2022-09-03T01:46:14.056Z,18.77
2022-09-03T01:48:47.453Z,18.73
2022-09-03T01:51:21.723Z,18.74
2022-09-03T01:54:20.723Z,18.73
2022-09-03T01:57:12.685Z,18.73
2022-09-03T02:00:00.894Z,18.70
2022-09-03T02:02:30.826Z,18.69
2022-09-03T02:05:02.458Z,18.69
2022-09-03T02:07:34.794Z,18.74
2022-09-03T02:10:05.065Z,18.71
2022-09-03T02:12:34.724Z,18.73
2022-09-03T02:15:06.781Z,18.73
2022-09-03T02:17:35.012Z,18.71
2022-09-03T02:20:05.970Z,18.73
2022-09-03T02:22:34.411Z,18.70
2022-09-03T02:25:02.293Z,18.73
2022-09-03T02:27:30.122Z,18.71
2022-09-03T02:29:58.611Z,18.67
2022-09-03T02:32:27.922Z,18.66
2022-09-03T02:34:55.958Z,18.68
2022-09-03T02:37:24.107Z,18.65
2022-09-03T02:39:52.705Z,18.67
2022-09-03T02:42:20.687Z,18.67
2022-09-03T02:44:51.302Z,18.70
2022-09-03T02:47:20.680Z,18.69
2022-09-03T02:49:50.546Z,18.64
2022-09-03T02:52:18.365Z,18.66
2022-09-03T02:54:46.367Z,18.67
2022-09-03T02:57:16.256Z,18.69
2022-09-03T02:59:48.024Z,18.64
2022-09-03T03:02:15.979Z,18.61
2022-09-03T03:04:43.855Z,18.62
2022-09-03T03:07:13.044Z,18.62
2022-09-03T03:09:40.904Z,18.62
2022-09-03T03:12:10.290Z,18.59
2022-09-03T03:14:38.114Z,18.58
2022-09-03T03:17:06.295Z,18.53
2022-09-03T03:19:34.219Z,18.59
2022-09-03T03:22:01.996Z,18.54
2022-09-03T03:24:31.178Z,18.50
2022-09-03T03:26:59.343Z,18.47
2022-09-03T03:29:27.851Z,18.45
2022-09-03T03:31:56.020Z,18.42
2022-09-03T03:34:23.856Z,18.34
2022-09-03T03:36:51.711Z,18.32
2022-09-03T03:39:20.290Z,18.33
2022-09-03T03:41:49.515Z,18.28
2022-09-03T03:44:20.145Z,18.24
2022-09-03T03:46:47.978Z,18.28
2022-09-03T03:49:15.752Z,18.19
2022-09-03T03:51:43.613Z,18.15
2022-09-03T03:54:11.429Z,18.15
2022-09-03T03:56:42.319Z,18.15
2022-09-03T03:59:11.488Z,18.12
2022-09-03T04:01:39.316Z,18.10
2022-09-03T04:04:07.216Z,18.09
2022-09-03T04:06:35.164Z,18.05
2022-09-03T04:09:03.012Z,18.05
2022-09-03T04:11:30.826Z,18.05
2022-09-03T04:13:58.697Z,18.05
2022-09-03T04:16:29.074Z,18.06
2022-09-03T04:18:57.742Z,18.08
2022-09-03T04:21:28.419Z,18.01
2022-09-03T04:23:57.475Z,18.02
2022-09-03T04:26:27.575Z,17.96
2022-09-03T04:28:55.584Z,17.99
2022-09-03T04:31:23.399Z,17.93
2022-09-03T04:33:52.591Z,17.92
2022-09-03T04:36:21.940Z,17.92
2022-09-03T04:38:52.040Z,17.92
2022-09-03T04:41:21.683Z,17.91
2022-09-03T04:43:51.353Z,17.87
2022-09-03T04:46:20.678Z,17.88
2022-09-03T04:48:51.288Z,17.87
2022-09-03T04:51:22.364Z,17.85
2022-09-03T04:53:54.771Z,17.83
2022-09-03T04:56:24.961Z,17.84
2022-09-03T04:58:57.023Z,17.83
2022-09-03T05:01:27.225Z,17.80
2022-09-03T05:03:55.390Z,17.81
2022-09-03T05:06:25.634Z,17.78
2022-09-03T05:08:54.462Z,17.78
2022-09-03T05:11:22.838Z,17.75
2022-09-03T05:13:51.528Z,17.78
2022-09-03T05:16:21.789Z,17.80
2022-09-03T05:18:52.964Z,17.81
2022-09-03T05:21:21.313Z,17.81
2022-09-03T05:23:51.461Z,17.79
2022-09-03T05:26:20.626Z,17.79
2022-09-03T05:28:48.540Z,17.79
2022-09-03T05:31:17.738Z,17.83
2022-09-03T05:33:46.911Z,17.79
2022-09-03T05:36:16.368Z,17.78
2022-09-03T05:38:44.717Z,17.79
2022-09-03T05:41:14.708Z,17.81
2022-09-03T05:43:42.740Z,17.83
2022-09-03T05:46:11.881Z,17.88
2022-09-03T05:48:40.816Z,17.90
2022-09-03T05:51:09.852Z,17.95
2022-09-03T05:53:38.626Z,18.02
2022-09-03T05:56:10.821Z,18.05
2022-09-03T05:58:43.516Z,18.05
2022-09-03T06:01:12.910Z,18.10
2022-09-03T06:03:41.022Z,18.12
2022-09-03T06:06:09.147Z,18.15
2022-09-03T06:08:38.678Z,18.13
2022-09-03T06:11:07.362Z,18.15
2022-09-03T06:13:36.047Z,18.12
2022-09-03T06:16:07.543Z,18.16
2022-09-03T06:18:35.610Z,18.18
2022-09-03T06:21:05.477Z,18.20
2022-09-03T06:23:34.199Z,18.23
2022-09-03T06:26:06.665Z,18.27
2022-09-03T06:28:36.323Z,18.31
2022-09-03T07:04:25.165Z,18.55
2022-09-03T07:06:53.046Z,18.57
2022-09-03T07:09:20.840Z,18.62
2022-09-03T07:11:49.394Z,18.62
2022-09-03T07:14:18.403Z,18.67
2022-09-03T07:16:47.138Z,18.63
2022-09-03T07:19:15.097Z,18.66
2022-09-03T07:21:49.169Z,18.78
2022-09-03T07:24:18.193Z,18.77
2022-09-03T07:26:47.045Z,18.75
2022-09-03T07:29:16.048Z,18.74
2022-09-03T07:31:44.944Z,18.75
2022-09-03T07:34:15.113Z,18.82
2022-09-03T07:36:48.649Z,18.83
2022-09-03T07:39:17.807Z,18.90
2022-09-03T07:41:46.817Z,18.94
2022-09-03T07:44:15.427Z,19.04
2022-09-03T07:46:43.666Z,19.12
2022-09-03T07:49:11.609Z,19.22
2022-09-03T07:51:40.182Z,19.46
2022-09-03T07:54:11.421Z,19.74
2022-09-03T07:56:40.450Z,20.04
2022-09-03T07:59:08.923Z,20.29
2022-09-03T08:01:38.480Z,20.50
2022-09-03T08:04:11.060Z,20.54
2022-09-03T08:06:39.499Z,20.55
2022-09-03T08:09:11.358Z,20.57
2022-09-03T08:11:40.980Z,20.56
2022-09-03T08:14:10.139Z,20.54
2022-09-03T08:16:39.930Z,20.56
2022-09-03T08:19:08.937Z,20.56
2022-09-03T08:21:36.945Z,20.63
2022-09-03T08:24:05.845Z,20.76
2022-09-03T08:26:36.424Z,20.91
2022-09-03T08:29:05.221Z,21.08
2022-09-03T08:31:33.704Z,21.15
2022-09-03T08:34:06.938Z,21.16
2022-09-03T08:36:36.838Z,21.25
2022-09-03T08:39:09.955Z,21.35
2022-09-03T08:42:01.073Z,21.47
2022-09-03T08:44:30.842Z,21.56
2022-09-03T08:47:02.033Z,21.67
2022-09-03T08:49:34.094Z,21.77
2022-09-03T08:52:04.262Z,21.89
2022-09-03T08:54:33.144Z,21.99
2022-09-03T08:57:04.174Z,22.06
2022-09-03T08:59:33.400Z,22.36
2022-09-03T09:02:08.170Z,22.71
2022-09-03T09:04:46.542Z,22.85
2022-09-03T09:07:18.581Z,23.12
2022-09-03T09:09:52.472Z,23.20
2022-09-03T09:12:41.306Z,23.24
2022-09-03T09:15:15.609Z,23.50
2022-09-03T09:18:02.625Z,23.53
2022-09-03T09:20:37.550Z,23.69
2022-09-03T09:23:06.648Z,23.81
2022-09-03T09:25:39.466Z,23.95
2022-09-03T09:28:15.178Z,24.05
2022-09-03T09:30:44.041Z,23.99
2022-09-03T09:33:12.307Z,23.93
2022-09-03T09:35:42.420Z,23.85
2022-09-03T09:38:11.631Z,23.87
2022-09-03T09:40:44.624Z,23.92
2022-09-03T09:43:16.224Z,23.75
2022-09-03T09:48:31.576Z,23.80
2022-09-03T09:51:07.228Z,23.74
2022-09-03T09:53:35.333Z,23.76
2022-09-03T09:56:04.077Z,23.65
2022-09-03T09:58:34.487Z,23.35
2022-09-03T10:01:05.314Z,23.30
2022-09-03T10:03:35.066Z,23.20
2022-09-03T10:06:26.910Z,23.42
2022-09-03T10:08:56.867Z,23.58
2022-09-03T10:11:27.545Z,23.68
2022-09-03T10:13:57.383Z,23.85
2022-09-03T10:16:28.882Z,24.02
2022-09-03T10:19:04.460Z,23.91
2022-09-03T10:21:37.711Z,23.88
2022-09-03T10:24:16.985Z,23.73
2022-09-03T10:26:46.078Z,23.59
2022-09-03T10:29:19.539Z,23.69
2022-09-03T10:31:56.933Z,23.56
2022-09-03T10:34:37.213Z,23.48
2022-09-03T10:37:15.359Z,23.57
2022-09-03T10:40:01.724Z,23.72
2022-09-03T10:42:39.836Z,23.67
2022-09-03T10:45:17.922Z,23.78
2022-09-03T10:48:21.132Z,23.77
2022-09-03T10:50:53.703Z,24.04
2022-09-03T10:53:32.426Z,24.23
2022-09-03T10:56:02.990Z,24.33
2022-09-03T10:58:42.190Z,24.36
2022-09-03T11:01:16.021Z,24.34
2022-09-03T11:03:47.010Z,24.36
2022-09-03T11:06:19.818Z,24.46
2022-09-03T11:08:50.421Z,24.67
2022-09-03T11:11:22.749Z,24.66
2022-09-03T11:13:54.116Z,24.65
2022-09-03T11:16:27.052Z,24.61
2022-09-03T11:18:57.100Z,24.73
2022-09-03T11:21:26.719Z,24.76
2022-09-03T11:24:02.467Z,24.79
2022-09-03T11:26:30.913Z,24.78
2022-09-03T11:29:01.558Z,24.75
2022-09-03T11:31:40.287Z,24.76
2022-09-03T11:34:23.236Z,24.70
2022-09-03T11:36:51.388Z,24.71
2022-09-03T11:39:21.906Z,24.71
2022-09-03T11:41:59.611Z,24.63
2022-09-03T11:44:37.806Z,24.61
2022-09-03T11:47:21.657Z,24.61
2022-09-03T11:49:51.864Z,24.64
2022-09-03T11:52:29.508Z,24.51
2022-09-03T11:54:57.729Z,24.52
2022-09-03T11:57:29.761Z,24.27
2022-09-03T12:00:11.422Z,24.21
2022-09-03T12:02:45.542Z,24.17
2022-09-03T12:05:23.241Z,24.19
2022-09-03T12:08:30.859Z,24.17
2022-09-03T12:11:03.793Z,24.21
2022-09-03T12:13:43.268Z,24.15
2022-09-03T12:16:43.012Z,24.07
2022-09-03T12:19:22.200Z,24.10
2022-09-03T12:21:52.847Z,23.91
2022-09-03T12:24:23.310Z,23.86
2022-09-03T12:26:51.251Z,23.82
2022-09-03T12:29:27.819Z,23.75
2022-09-03T12:31:56.502Z,23.68
2022-09-03T12:34:27.450Z,23.64
2022-09-03T12:36:58.307Z,23.55
2022-09-03T12:42:21.544Z,23.34
2022-09-03T12:44:49.787Z,23.23
2022-09-03T12:50:11.248Z,23.13
2022-09-03T12:52:42.365Z,23.08
2022-09-03T12:55:27.669Z,23.01
2022-09-03T12:58:02.623Z,22.98
2022-09-03T13:00:33.088Z,22.96
2022-09-03T13:03:02.438Z,22.86
2022-09-03T13:05:35.199Z,22.57
2022-09-03T13:08:05.826Z,22.37
2022-09-03T13:10:36.915Z,22.13
2022-09-03T13:13:08.802Z,21.81
2022-09-03T13:15:36.617Z,21.58
2022-09-03T13:18:24.905Z,21.32
2022-09-03T13:21:08.106Z,21.19
2022-09-03T13:23:43.944Z,21.07
2022-09-03T13:26:22.645Z,20.82
2022-09-03T13:28:58.836Z,20.67
2022-09-03T13:31:31.391Z,20.69
2022-09-03T13:34:02.687Z,20.53
2022-09-03T13:36:35.417Z,20.41
2022-09-03T13:39:06.418Z,20.24
2022-09-03T13:41:39.389Z,20.11
2022-09-03T13:44:11.545Z,20.06
2022-09-03T13:46:45.410Z,19.97
2022-09-03T13:49:40.171Z,19.95
2022-09-03T13:52:16.080Z,19.97
2022-09-03T13:54:49.691Z,19.97
2022-09-03T13:57:28.192Z,19.95
2022-09-03T13:59:58.331Z,20.02
2022-09-03T14:02:35.137Z,20.11
2022-09-03T14:05:07.935Z,20.21
2022-09-03T14:07:51.340Z,20.35
2022-09-03T14:10:24.168Z,20.70
2022-09-03T14:13:01.750Z,21.15
2022-09-03T14:15:32.819Z,21.49
2022-09-03T14:18:13.766Z,21.72
2022-09-03T14:20:49.012Z,21.78
2022-09-03T14:23:32.686Z,21.73
2022-09-03T14:26:02.237Z,21.56
2022-09-03T14:28:32.972Z,21.37
2022-09-03T14:31:12.078Z,21.19
2022-09-03T14:33:45.822Z,21.01
2022-09-03T14:36:22.411Z,20.93
2022-09-03T14:39:09.222Z,20.85
2022-09-03T14:42:05.225Z,20.80
2022-09-03T14:45:20.353Z,20.74
2022-09-03T14:48:06.564Z,20.73
2022-09-03T14:50:51.724Z,20.72
2022-09-03T14:53:49.147Z,20.67
2022-09-03T14:56:26.016Z,20.62
2022-09-03T14:59:07.521Z,20.63
2022-09-03T15:01:39.259Z,20.58
2022-09-03T15:04:37.588Z,20.50
2022-09-03T15:07:28.070Z,20.52
2022-09-03T15:10:03.216Z,20.52
2022-09-03T15:12:38.191Z,20.52
2022-09-03T15:15:11.523Z,20.53
2022-09-03T15:17:57.523Z,20.56
2022-09-03T15:20:35.790Z,20.59
2022-09-03T15:23:21.160Z,20.54
2022-09-03T15:26:19.348Z,20.55
2022-09-03T15:28:58.577Z,20.57
2022-09-03T15:31:35.513Z,20.54
2022-09-03T15:34:12.755Z,20.52
2022-09-03T15:36:45.729Z,20.53
2022-09-03T15:39:21.475Z,20.53
2022-09-03T15:41:57.120Z,20.75
2022-09-03T15:44:27.670Z,20.84
2022-09-03T15:46:59.057Z,20.96
2022-09-03T15:49:48.203Z,21.09
2022-09-03T15:52:30.426Z,21.27
2022-09-03T15:55:04.058Z,21.29
2022-09-03T15:57:37.161Z,21.27
2022-09-03T16:00:10.477Z,21.22
2022-09-03T16:02:43.668Z,21.34
2022-09-03T16:05:16.353Z,21.38
2022-09-03T16:07:56.406Z,21.43
2022-09-03T16:10:36.785Z,21.50
2022-09-03T16:13:09.075Z,21.42
2022-09-03T16:15:42.298Z,21.31
2022-09-03T16:18:25.990Z,21.47
2022-09-03T16:20:57.378Z,21.46
2022-09-03T16:23:29.029Z,21.31
2022-09-03T16:26:00.027Z,21.34
2022-09-03T16:28:31.245Z,21.16
2022-09-03T16:31:08.985Z,21.06
2022-09-03T16:33:43.658Z,21.10
2022-09-03T16:36:24.692Z,21.04
2022-09-03T16:39:00.284Z,20.95
2022-09-03T16:41:31.703Z,20.93
2022-09-03T16:44:06.138Z,20.92
2022-09-03T16:46:42.119Z,20.84
2022-09-03T16:49:36.039Z,20.78
2022-09-03T16:52:12.388Z,20.79
2022-09-03T16:54:57.210Z,20.81
2022-09-03T16:57:36.951Z,20.86
2022-09-03T17:00:12.446Z,20.87
2022-09-03T17:03:25.127Z,20.86
2022-09-03T17:06:06.295Z,20.83
2022-09-03T17:08:43.289Z,20.82
2022-09-03T17:11:20.351Z,20.85
2022-09-03T17:14:01.777Z,20.91
2022-09-03T17:16:44.360Z,20.92
2022-09-03T17:19:19.816Z,20.95
2022-09-03T17:21:50.659Z,20.96
2022-09-03T17:24:36.034Z,21.00
2022-09-03T17:27:14.152Z,21.02
2022-09-03T17:29:56.495Z,21.02
2022-09-03T17:32:40.135Z,21.01
2022-09-03T17:35:13.307Z,20.98
2022-09-03T17:37:52.713Z,20.96
2022-09-03T17:40:27.569Z,20.93
2022-09-03T17:42:58.452Z,20.89
2022-09-03T17:45:38.595Z,20.81
2022-09-03T17:48:19.535Z,20.74
2022-09-03T17:50:52.291Z,20.64
2022-09-03T17:53:24.957Z,20.58
2022-09-03T17:55:57.605Z,20.50
2022-09-03T17:58:31.376Z,20.43
2022-09-03T18:01:09.061Z,20.33
2022-09-03T18:03:44.065Z,20.27
2022-09-03T18:06:23.963Z,20.21
2022-09-03T18:08:56.767Z,20.14
2022-09-03T18:11:33.797Z,20.11
2022-09-03T18:14:09.182Z,20.08
2022-09-03T18:16:39.109Z,20.01
2022-09-03T18:19:18.313Z,20.00
2022-09-03T18:22:06.204Z,20.02
2022-09-03T18:24:54.825Z,20.03
2022-09-03T18:27:47.377Z,19.98
2022-09-03T18:30:34.298Z,19.97
2022-09-03T18:33:19.609Z,19.90
2022-09-03T18:36:05.863Z,19.89
2022-09-03T18:38:55.113Z,19.88
2022-09-03T18:42:02.832Z,19.88
2022-09-03T18:48:20.270Z,19.86
2022-09-03T18:51:10.757Z,19.89
2022-09-03T18:54:05.659Z,19.86
2022-09-03T18:56:55.813Z,19.86
2022-09-03T18:59:52.797Z,19.80
2022-09-03T19:02:46.664Z,19.67
2022-09-03T19:05:36.214Z,19.61
2022-09-03T19:08:28.049Z,19.53
2022-09-03T19:11:20.115Z,19.45
2022-09-03T19:14:05.600Z,19.37
2022-09-03T19:17:00.732Z,19.29
2022-09-03T19:20:09.345Z,19.26
2022-09-03T19:22:56.366Z,19.22
2022-09-03T19:25:42.711Z,19.23
2022-09-03T19:28:35.268Z,19.20
2022-09-03T19:31:36.934Z,19.16
2022-09-03T19:34:28.513Z,19.16
2022-09-03T19:37:19.657Z,19.16
2022-09-03T19:40:17.077Z,19.11
2022-09-03T19:43:10.936Z,19.07
2022-09-03T19:46:05.260Z,19.05
2022-09-03T19:49:02.977Z,19.02
2022-09-03T19:51:51.681Z,19.01
2022-09-03T19:54:38.567Z,18.98
2022-09-03T19:57:24.079Z,18.92
2022-09-03T20:00:09.419Z,18.91
2022-09-03T20:02:57.141Z,18.92
2022-09-03T20:05:42.778Z,18.86
2022-09-03T20:08:31.413Z,18.80
2022-09-03T20:10:59.549Z,18.80
2022-09-03T20:13:28.513Z,18.79
2022-09-03T20:16:02.878Z,18.80
2022-09-03T20:18:40.300Z,18.73
2022-09-03T20:21:14.339Z,18.74
2022-09-03T20:23:48.744Z,18.78
2022-09-03T20:26:25.874Z,18.78
2022-09-03T20:29:04.463Z,18.83
2022-09-03T20:31:42.894Z,18.85
2022-09-03T20:34:21.512Z,18.89
2022-09-03T20:37:09.745Z,18.89
2022-09-03T20:39:45.208Z,18.84
2022-09-03T20:42:34.139Z,18.83
2022-09-03T20:45:06.636Z,18.85
2022-09-03T20:48:09.296Z,18.86
2022-09-03T20:50:50.956Z,18.89
2022-09-03T20:53:28.225Z,18.90
2022-09-03T20:55:59.601Z,18.92
2022-09-03T20:58:31.812Z,18.92
2022-09-03T21:01:04.832Z,18.95
2022-09-03T21:03:37.190Z,18.94
2022-09-03T21:06:16.080Z,18.92
2022-09-03T21:09:00.978Z,18.86
2022-09-03T21:11:36.379Z,18.82
2022-09-03T21:14:14.568Z,18.80
2022-09-03T21:16:49.919Z,18.76
2022-09-03T21:19:22.349Z,18.74
2022-09-03T21:21:59.525Z,18.70
2022-09-03T21:24:31.646Z,18.65
2022-09-03T21:27:02.977Z,18.63
2022-09-03T21:29:33.948Z,18.58
2022-09-03T21:32:05.417Z,18.54
2022-09-03T21:34:38.534Z,18.49
2022-09-03T21:37:11.876Z,18.47
2022-09-03T21:39:43.934Z,18.45
2022-09-03T21:42:17.721Z,18.46
2022-09-03T21:44:53.986Z,18.44
2022-09-03T21:47:24.704Z,18.41
2022-09-03T21:49:58.316Z,18.37
2022-09-03T21:52:32.701Z,18.36
2022-09-03T21:55:01.121Z,18.36
2022-09-03T21:57:34.194Z,18.34
2022-09-03T22:00:21.815Z,18.27
2022-09-03T22:02:50.943Z,18.24
2022-09-03T22:05:19.166Z,18.28
2022-09-03T22:08:04.987Z,18.28
2022-09-03T22:10:34.191Z,18.31
2022-09-03T22:13:14.868Z,18.33
2022-09-03T22:15:44.116Z,18.36
2022-09-03T22:18:19.339Z,18.39
2022-09-03T22:21:01.175Z,18.44
2022-09-03T22:23:43.599Z,18.46
2022-09-03T22:26:22.772Z,18.44
2022-09-03T22:29:00.536Z,18.41
2022-09-03T22:31:38.414Z,18.45
2022-09-03T22:34:17.065Z,18.37
2022-09-03T22:36:50.471Z,18.36
2022-09-03T22:39:25.875Z,18.42
2022-09-03T22:42:09.999Z,18.40
2022-09-03T22:44:57.092Z,18.42
2022-09-03T22:47:33.954Z,18.39
2022-09-03T22:50:13.420Z,18.35
2022-09-03T22:52:45.937Z,18.35
2022-09-03T22:55:18.464Z,18.36
2022-09-03T22:57:53.379Z,18.37
2022-09-03T23:00:21.242Z,18.38
2022-09-03T23:02:52.632Z,18.38
2022-09-03T23:05:31.502Z,18.38
2022-09-03T23:08:06.266Z,18.44
2022-09-03T23:10:55.097Z,18.41
2022-09-03T23:13:25.304Z,18.43
2022-09-03T23:16:00.864Z,18.42
2022-09-03T23:18:30.907Z,18.44
2022-09-03T23:21:05.958Z,18.46
2022-09-03T23:23:36.237Z,18.46
2022-09-03T23:26:13.610Z,18.42
2022-09-03T23:28:44.583Z,18.41
2022-09-03T23:31:22.600Z,18.41
2022-09-03T23:33:52.272Z,18.44
2022-09-03T23:36:55.085Z,18.47
2022-09-03T23:39:30.280Z,18.45
2022-09-03T23:42:06.922Z,18.43
2022-09-03T23:44:45.405Z,18.48
2022-09-03T23:47:20.849Z,18.44
2022-09-03T23:49:57.565Z,18.39
2022-09-03T23:52:44.285Z,18.36
2022-09-03T23:55:20.890Z,18.39
2022-09-03T23:57:55.551Z,18.38
